createdAt,value
2023-05-19T00:01:19.563Z,10.50
2023-05-19T00:08:18.429Z,10.00
2023-05-19T00:10:46.059Z,10.20
2023-05-19T00:13:13.260Z,10.10
2023-05-19T00:15:40.625Z,10.50
2023-05-19T00:18:09.104Z,10.00
2023-05-19T00:20:37.826Z,9.70
2023-05-19T00:23:04.875Z,9.00
2023-05-19T00:25:31.888Z,8.80
2023-05-19T00:27:59.406Z,8.90
2023-05-19T00:30:27.033Z,8.10
2023-05-19T00:32:54.282Z,9.50
2023-05-19T00:35:21.931Z,8.70
2023-05-19T00:37:49.060Z,9.50
2023-05-19T00:40:16.225Z,8.50
2023-05-19T00:42:43.163Z,8.90
2023-05-19T00:45:11.412Z,7.70
2023-05-19T00:47:38.392Z,8.10
2023-05-19T00:50:05.991Z,7.70
2023-05-19T00:52:33.007Z,8.10
2023-05-19T00:55:00.111Z,7.60
2023-05-19T00:57:27.312Z,8.30
2023-05-19T00:59:54.348Z,7.50
2023-05-19T01:02:21.699Z,7.60
2023-05-19T01:04:48.994Z,8.90
2023-05-19T01:07:16.647Z,7.50
2023-05-19T01:09:44.241Z,7.30
2023-05-19T01:12:11.713Z,7.80
2023-05-19T01:14:38.710Z,7.40
2023-05-19T01:17:10.140Z,7.20
2023-05-19T01:19:56.459Z,6.50
2023-05-19T01:22:55.067Z,7.00
2023-05-19T01:25:37.717Z,7.30
2023-05-19T01:28:13.067Z,6.80
2023-05-19T01:30:44.440Z,6.30
2023-05-19T01:33:14.320Z,6.60
2023-05-19T01:35:42.176Z,7.30
2023-05-19T01:38:10.747Z,6.40
2023-05-19T01:40:38.691Z,6.40
2023-05-19T01:43:06.668Z,6.60
2023-05-19T01:45:33.984Z,7.30
2023-05-19T01:48:02.701Z,6.30
2023-05-19T01:50:30.143Z,6.40
2023-05-19T01:52:57.402Z,6.80
2023-05-19T01:55:24.522Z,7.00
2023-05-19T01:58:16.788Z,6.20
2023-05-19T02:00:56.721Z,6.50
2023-05-19T02:03:30.315Z,5.80
2023-05-19T02:06:12.597Z,6.80
2023-05-19T02:08:59.174Z,6.60
2023-05-19T02:11:37.787Z,5.70
2023-05-19T02:14:09.156Z,6.30
2023-05-19T02:16:36.201Z,6.30
2023-05-19T02:19:03.255Z,5.40
2023-05-19T02:21:31.204Z,5.90
2023-05-19T02:23:58.241Z,5.40
2023-05-19T02:26:26.374Z,6.70
2023-05-19T02:28:53.774Z,6.50
2023-05-19T02:31:20.831Z,5.70
2023-05-19T02:33:47.860Z,5.90
2023-05-19T02:36:14.981Z,5.70
2023-05-19T02:38:42.053Z,6.00
2023-05-19T02:41:09.094Z,6.20
2023-05-19T02:43:36.380Z,6.40
2023-05-19T02:46:03.406Z,5.90
2023-05-19T02:48:30.532Z,5.60
2023-05-19T02:50:57.547Z,6.80
2023-05-19T02:53:24.578Z,5.70
2023-05-19T02:55:51.685Z,5.90
2023-05-19T02:58:18.911Z,6.00
2023-05-19T03:00:46.074Z,5.40
2023-05-19T03:03:14.062Z,6.10
2023-05-19T03:05:41.628Z,5.20
2023-05-19T03:08:09.393Z,5.50
2023-05-19T03:10:36.628Z,5.70
2023-05-19T03:13:03.777Z,6.30
2023-05-19T03:15:31.022Z,5.30
2023-05-19T03:17:58.438Z,6.50
2023-05-19T03:20:25.654Z,5.90
2023-05-19T03:22:52.655Z,6.40
2023-05-19T03:25:19.610Z,5.70
2023-05-19T03:27:46.585Z,6.40
2023-05-19T03:30:14.223Z,6.10
2023-05-19T03:32:56.291Z,6.40
2023-05-19T03:35:23.416Z,6.20
2023-05-19T03:37:50.622Z,6.40
2023-05-19T03:40:19.127Z,5.70
2023-05-19T03:42:46.451Z,6.00
2023-05-19T03:45:13.496Z,5.60
2023-05-19T03:47:41.571Z,5.50
2023-05-19T03:50:40.772Z,5.40
2023-05-19T03:53:15.855Z,6.60
2023-05-19T03:55:44.519Z,5.20
2023-05-19T03:58:14.701Z,5.30
2023-05-19T04:00:42.361Z,5.80
2023-05-19T04:03:09.466Z,5.50
2023-05-19T04:05:36.565Z,5.20
2023-05-19T04:08:03.596Z,4.80
2023-05-19T04:10:31.122Z,4.90
2023-05-19T04:12:58.258Z,5.20
2023-05-19T04:15:26.346Z,4.80
2023-05-19T04:17:53.381Z,4.90
2023-05-19T04:20:20.504Z,4.70
2023-05-19T04:22:47.486Z,5.20
2023-05-19T04:25:14.550Z,5.70
2023-05-19T04:27:41.495Z,5.50
2023-05-19T04:30:09.049Z,5.90
2023-05-19T04:32:37.692Z,5.20
2023-05-19T04:35:06.000Z,4.90
2023-05-19T04:37:33.005Z,4.50
2023-05-19T04:40:01.933Z,5.40
2023-05-19T04:42:30.849Z,5.30
2023-05-19T04:44:59.167Z,4.30
2023-05-19T04:47:28.351Z,5.10
2023-05-19T04:49:55.850Z,4.80
2023-05-19T04:52:23.898Z,5.40
2023-05-19T04:54:51.147Z,5.50
2023-05-19T04:57:18.122Z,4.70
2023-05-19T04:59:46.493Z,4.80
2023-05-19T05:02:13.721Z,4.60
2023-05-19T05:04:43.629Z,4.60
2023-05-19T05:07:10.929Z,5.30
2023-05-19T05:09:38.023Z,4.60
2023-05-19T05:12:07.810Z,4.70
2023-05-19T05:14:35.947Z,6.60
2023-05-19T05:17:03.708Z,4.60
2023-05-19T05:19:32.377Z,5.20
2023-05-19T05:22:00.457Z,4.90
2023-05-19T05:24:27.972Z,4.50
2023-05-19T05:26:59.118Z,4.90
2023-05-19T05:29:26.464Z,4.60
2023-05-19T05:31:53.665Z,5.40
2023-05-19T05:34:20.765Z,5.30
2023-05-19T05:36:51.340Z,5.00
2023-05-19T05:39:18.555Z,5.50
2023-05-19T05:41:45.595Z,5.70
2023-05-19T05:44:12.757Z,5.50
2023-05-19T05:46:41.544Z,5.00
2023-05-19T05:49:09.559Z,4.90
2023-05-19T05:51:37.179Z,5.40
2023-05-19T05:54:06.522Z,5.40
2023-05-19T05:56:37.588Z,5.30
2023-05-19T05:59:05.973Z,5.20
2023-05-19T06:01:35.517Z,5.30
2023-05-19T06:04:03.359Z,5.40
2023-05-19T06:06:31.592Z,5.30
2023-05-19T06:08:59.498Z,5.10
2023-05-19T06:11:27.457Z,5.30
2023-05-19T06:13:54.819Z,5.30
2023-05-19T06:16:40.256Z,5.60
2023-05-19T06:19:07.581Z,5.10
2023-05-19T06:21:34.692Z,5.90
2023-05-19T06:24:01.743Z,5.40
2023-05-19T06:26:28.809Z,5.60
2023-05-19T06:28:55.766Z,5.90
2023-05-19T06:31:23.354Z,5.50
2023-05-19T06:33:53.914Z,5.50
2023-05-19T06:36:21.177Z,5.40
2023-05-19T06:38:48.304Z,5.60
2023-05-19T06:41:15.915Z,5.80
2023-05-19T06:43:43.267Z,5.40
2023-05-19T06:46:14.161Z,5.70
2023-05-19T06:48:41.266Z,5.40
2023-05-19T06:51:10.485Z,5.50
2023-05-19T06:53:38.525Z,5.70
2023-05-19T06:56:08.166Z,6.50
2023-05-19T06:58:36.190Z,5.30
2023-05-19T07:01:04.625Z,5.80
2023-05-19T07:03:35.865Z,5.60
2023-05-19T07:06:05.711Z,6.00
2023-05-19T07:08:35.342Z,5.40
2023-05-19T07:11:02.580Z,5.40
2023-05-19T07:13:29.748Z,5.20
2023-05-19T07:15:57.604Z,5.50
2023-05-19T07:18:25.710Z,5.30
2023-05-19T07:20:53.991Z,5.80
2023-05-19T07:23:21.199Z,5.60
2023-05-19T07:25:48.304Z,6.60
2023-05-19T07:28:15.356Z,5.20
2023-05-19T07:30:42.457Z,5.60
2023-05-19T07:33:09.681Z,5.20
2023-05-19T07:35:36.826Z,5.20
2023-05-19T07:38:04.098Z,5.20
2023-05-19T07:40:31.615Z,4.90
2023-05-19T07:42:58.911Z,5.50
2023-05-19T07:45:26.068Z,5.50
2023-05-19T07:47:54.096Z,5.70
2023-05-19T07:50:21.408Z,5.50
2023-05-19T07:52:48.416Z,6.20
2023-05-19T07:55:15.467Z,5.90
2023-05-19T07:57:42.470Z,5.80
2023-05-19T08:00:12.050Z,5.80
2023-05-19T08:02:39.091Z,5.60
2023-05-19T08:05:06.684Z,5.80
2023-05-19T08:07:33.935Z,6.00
2023-05-19T08:10:00.994Z,5.90
2023-05-19T08:12:28.616Z,5.60
2023-05-19T08:14:55.651Z,5.70
2023-05-19T08:17:23.370Z,5.40
2023-05-19T08:19:50.799Z,6.40
2023-05-19T08:22:17.898Z,6.50
2023-05-19T08:24:45.236Z,6.50
2023-05-19T08:27:12.268Z,5.80
2023-05-19T08:29:39.304Z,5.90
2023-05-19T08:32:06.741Z,6.40
2023-05-19T08:34:33.782Z,5.90
2023-05-19T08:37:00.928Z,6.10
2023-05-19T08:39:28.499Z,5.90
2023-05-19T08:41:55.623Z,6.40
2023-05-19T08:44:22.870Z,6.40
2023-05-19T08:46:49.971Z,5.40
2023-05-19T08:49:17.259Z,6.00
2023-05-19T08:51:53.527Z,5.70
2023-05-19T08:54:20.907Z,5.90
2023-05-19T08:56:47.932Z,6.50
2023-05-19T08:59:15.512Z,5.60
2023-05-19T09:01:43.934Z,5.50
2023-05-19T09:04:11.158Z,5.40
2023-05-19T09:06:41.138Z,5.30
2023-05-19T09:09:08.783Z,5.90
2023-05-19T09:11:37.688Z,5.90
2023-05-19T09:14:06.052Z,6.10
2023-05-19T09:16:36.749Z,5.80
2023-05-19T09:19:04.768Z,5.60
2023-05-19T09:21:44.039Z,5.60
2023-05-19T09:24:11.763Z,5.90
2023-05-19T09:26:40.177Z,6.20
2023-05-19T09:29:16.988Z,6.20
2023-05-19T09:31:51.590Z,6.50
2023-05-19T09:34:19.160Z,5.50
2023-05-19T09:36:49.534Z,6.60
2023-05-19T09:39:16.835Z,7.40
2023-05-19T09:41:44.063Z,7.10
2023-05-19T09:44:23.759Z,7.30
2023-05-19T09:46:51.379Z,7.40
2023-05-19T09:49:32.869Z,7.30
2023-05-19T09:52:02.414Z,8.80
2023-05-19T09:54:32.088Z,9.20
2023-05-19T09:56:59.705Z,9.10
2023-05-19T09:59:28.041Z,9.10
2023-05-19T10:01:58.240Z,8.00
2023-05-19T10:04:27.251Z,9.10
2023-05-19T10:06:55.127Z,8.70
2023-05-19T10:09:26.448Z,8.90
2023-05-19T10:14:25.840Z,8.80
2023-05-19T10:19:27.711Z,8.20
2023-05-19T10:21:55.036Z,9.10
2023-05-19T10:24:22.450Z,7.90
2023-05-19T10:27:01.111Z,7.70
2023-05-19T10:29:36.852Z,7.70
2023-05-19T10:32:11.900Z,7.30
2023-05-19T10:35:16.691Z,7.00
2023-05-19T10:38:11.048Z,8.10
2023-05-19T10:40:41.284Z,6.70
2023-05-19T10:43:13.646Z,6.50
2023-05-19T10:45:54.801Z,6.30
2023-05-19T10:48:22.655Z,5.60
2023-05-19T10:50:53.311Z,6.70
2023-05-19T10:53:22.722Z,5.10
2023-05-19T10:55:53.374Z,4.70
2023-05-19T10:58:49.269Z,4.60
2023-05-19T11:01:17.561Z,5.30
2023-05-19T11:03:54.919Z,4.90
2023-05-19T11:06:25.091Z,5.60
2023-05-19T11:08:55.254Z,5.60
2023-05-19T11:11:23.378Z,5.30
2023-05-19T11:13:51.600Z,5.90
2023-05-19T11:16:20.403Z,5.60
2023-05-19T11:18:50.778Z,5.40
2023-05-19T11:21:19.878Z,5.80
2023-05-19T11:23:47.015Z,6.10
2023-05-19T11:26:14.071Z,5.40
2023-05-19T11:28:41.169Z,5.70
2023-05-19T11:31:09.179Z,6.20
2023-05-19T11:33:36.198Z,5.00
2023-05-19T11:36:03.302Z,4.80
2023-05-19T11:38:30.499Z,5.80
2023-05-19T11:40:57.640Z,5.70
2023-05-19T11:43:25.575Z,6.30
2023-05-19T11:45:54.359Z,5.70
2023-05-19T11:48:22.366Z,5.70
2023-05-19T11:50:50.035Z,5.80
2023-05-19T11:53:17.532Z,6.30
2023-05-19T11:55:48.068Z,6.70
2023-05-19T11:58:15.692Z,7.00
2023-05-19T12:00:46.143Z,6.40
2023-05-19T12:03:13.567Z,6.60
2023-05-19T12:05:48.227Z,7.00
2023-05-19T12:08:17.876Z,6.50
2023-05-19T12:10:45.527Z,6.60
2023-05-19T12:13:12.504Z,6.40
2023-05-19T12:15:39.773Z,6.40
2023-05-19T12:18:07.093Z,6.30
2023-05-19T12:20:36.162Z,5.60
2023-05-19T12:23:03.929Z,5.50
2023-05-19T12:25:31.516Z,6.00
2023-05-19T12:27:59.698Z,6.10
2023-05-19T12:30:28.028Z,5.70
2023-05-19T12:32:56.690Z,5.80
2023-05-19T12:35:30.904Z,6.40
2023-05-19T12:37:58.049Z,5.80
2023-05-19T12:40:26.034Z,6.50
2023-05-19T12:42:59.219Z,5.90
2023-05-19T12:45:28.669Z,6.90
2023-05-19T12:47:56.399Z,6.50
2023-05-19T12:50:30.209Z,7.00
2023-05-19T12:52:59.732Z,7.00
2023-05-19T12:55:26.935Z,5.40
2023-05-19T12:57:57.097Z,5.50
2023-05-19T13:00:27.900Z,5.60
2023-05-19T13:03:03.119Z,6.40
2023-05-19T13:05:31.788Z,5.50
2023-05-19T13:07:59.497Z,6.10
2023-05-19T13:10:27.874Z,6.40
2023-05-19T13:12:55.780Z,7.50
2023-05-19T13:15:24.322Z,6.50
2023-05-19T13:17:51.691Z,6.60
2023-05-19T13:20:19.406Z,6.80
2023-05-19T13:22:47.613Z,8.10
2023-05-19T13:25:14.776Z,8.90
2023-05-19T13:27:41.922Z,8.30
2023-05-19T13:30:09.324Z,8.30
2023-05-19T13:32:36.473Z,8.40
2023-05-19T13:35:03.883Z,8.90
2023-05-19T13:37:31.021Z,8.60
2023-05-19T13:40:01.262Z,8.80
2023-05-19T13:42:28.317Z,9.20
2023-05-19T13:44:56.744Z,8.50
2023-05-19T13:47:24.314Z,8.80
2023-05-19T13:49:51.708Z,10.20
2023-05-19T13:52:21.358Z,8.90
2023-05-19T13:54:48.904Z,9.50
2023-05-19T13:57:18.919Z,9.90
2023-05-19T14:00:00.226Z,9.50
2023-05-19T14:02:30.103Z,9.00
2023-05-19T14:04:57.685Z,9.50
2023-05-19T14:07:25.814Z,9.40
2023-05-19T14:09:53.136Z,8.20
2023-05-19T14:12:23.229Z,9.00
2023-05-19T14:14:52.550Z,8.20
2023-05-19T14:17:19.626Z,9.00
2023-05-19T14:19:46.624Z,8.30
2023-05-19T14:22:13.731Z,7.90
2023-05-19T14:24:41.632Z,6.90
2023-05-19T14:27:08.720Z,7.20
2023-05-19T14:29:36.100Z,6.30
2023-05-19T14:32:03.945Z,7.00
2023-05-19T14:34:31.226Z,6.10
2023-05-19T14:36:58.312Z,6.20
2023-05-19T14:39:25.377Z,6.40
2023-05-19T14:41:53.345Z,6.60
2023-05-19T14:44:21.136Z,6.50
2023-05-19T14:46:48.646Z,6.80
2023-05-19T14:49:15.743Z,6.50
2023-05-19T14:51:42.795Z,7.30
2023-05-19T14:54:09.862Z,7.60
2023-05-19T14:56:37.258Z,7.40
2023-05-19T14:59:04.630Z,8.40
2023-05-19T15:01:31.812Z,9.10
2023-05-19T15:03:59.721Z,10.00
2023-05-19T15:06:26.758Z,9.70
2023-05-19T15:08:54.218Z,8.60
2023-05-19T15:11:22.522Z,10.00
2023-05-19T15:13:49.646Z,10.40
2023-05-19T15:16:18.067Z,9.70
2023-05-19T15:18:45.849Z,9.10
2023-05-19T15:21:13.071Z,10.00
2023-05-19T15:23:40.040Z,10.70
2023-05-19T15:26:07.037Z,10.80
2023-05-19T15:28:34.414Z,10.20
2023-05-19T15:31:01.473Z,10.00
2023-05-19T15:33:28.549Z,9.30
2023-05-19T15:35:55.927Z,9.50
2023-05-19T15:38:22.998Z,10.20
2023-05-19T15:40:50.089Z,10.30
2023-05-19T15:43:17.657Z,10.20
2023-05-19T15:45:44.764Z,8.60
2023-05-19T15:48:11.884Z,9.40
2023-05-19T15:50:38.952Z,9.80
2023-05-19T15:53:07.794Z,8.20
2023-05-19T15:55:35.026Z,7.50
2023-05-19T15:58:02.141Z,9.30
2023-05-19T16:00:29.309Z,8.90
2023-05-19T16:02:56.588Z,8.90
2023-05-19T16:05:23.742Z,9.50
2023-05-19T16:07:50.813Z,9.20
2023-05-19T16:10:17.875Z,10.00
2023-05-19T16:12:45.195Z,10.20
2023-05-19T16:15:12.273Z,9.40
2023-05-19T16:17:39.322Z,9.20
2023-05-19T16:20:06.903Z,8.90
2023-05-19T16:22:34.212Z,9.40
2023-05-19T16:25:01.155Z,8.40
2023-05-19T16:27:28.201Z,7.90
2023-05-19T16:29:55.537Z,8.20
2023-05-19T16:32:22.731Z,7.70
2023-05-19T16:34:49.741Z,8.10
2023-05-19T16:37:16.807Z,7.00
2023-05-19T16:39:44.154Z,7.40
2023-05-19T16:42:11.180Z,8.00
2023-05-19T16:44:38.267Z,7.00
2023-05-19T16:47:05.490Z,7.00
2023-05-19T16:49:33.702Z,7.10
2023-05-19T16:52:00.831Z,7.50
2023-05-19T16:54:28.684Z,7.50
2023-05-19T16:56:55.661Z,7.40
2023-05-19T16:59:22.608Z,7.30
2023-05-19T17:01:50.162Z,7.10
2023-05-19T17:04:17.249Z,6.80
2023-05-19T17:06:44.265Z,8.00
2023-05-19T17:09:11.345Z,6.50
2023-05-19T17:11:38.597Z,7.20
2023-05-19T17:14:09.318Z,7.60
2023-05-19T17:16:36.730Z,7.60
2023-05-19T17:19:04.147Z,7.40
2023-05-19T17:21:31.893Z,7.40
2023-05-19T17:23:58.946Z,7.90
2023-05-19T17:26:26.835Z,7.30
2023-05-19T17:28:53.914Z,7.50
2023-05-19T17:31:20.998Z,7.00
2023-05-19T17:33:48.023Z,7.00
2023-05-19T17:36:15.433Z,8.50
2023-05-19T17:38:42.814Z,8.40
2023-05-19T17:41:10.178Z,8.50
2023-05-19T17:43:37.995Z,7.60
2023-05-19T17:46:05.284Z,8.00
2023-05-19T17:48:32.656Z,7.80
2023-05-19T17:50:59.848Z,8.00
2023-05-19T17:53:27.360Z,8.40
2023-05-19T17:55:58.339Z,8.50
2023-05-19T17:58:25.890Z,9.10
2023-05-19T18:00:53.907Z,8.60
2023-05-19T18:03:21.789Z,8.50
2023-05-19T18:05:49.548Z,7.90
2023-05-19T18:08:17.154Z,8.90
2023-05-19T18:10:44.734Z,8.50
2023-05-19T18:13:14.067Z,8.90
2023-05-19T18:15:41.280Z,8.30
2023-05-19T18:18:10.740Z,8.50
2023-05-19T18:20:44.284Z,8.70
2023-05-19T18:23:11.660Z,8.60
2023-05-19T18:25:38.757Z,8.60
2023-05-19T18:28:05.824Z,7.90
2023-05-19T18:30:32.976Z,8.00
2023-05-19T18:33:03.935Z,7.80
2023-05-19T18:35:31.189Z,6.90
2023-05-19T18:37:58.427Z,7.60
2023-05-19T18:40:25.460Z,8.30
2023-05-19T18:42:52.437Z,8.90
2023-05-19T18:45:19.532Z,7.70
2023-05-19T18:47:46.847Z,8.30
2023-05-19T18:50:14.584Z,8.00
2023-05-19T18:52:41.639Z,9.30
2023-05-19T18:55:09.174Z,8.70
2023-05-19T18:57:36.146Z,8.10
2023-05-19T19:00:04.382Z,8.70
2023-05-19T19:02:31.578Z,8.50
2023-05-19T19:04:58.994Z,8.70
2023-05-19T19:07:27.926Z,8.40
2023-05-19T19:09:54.950Z,8.50
2023-05-19T19:12:21.924Z,8.60
2023-05-19T19:14:49.035Z,9.20
2023-05-19T19:17:16.173Z,8.70
2023-05-19T19:19:43.396Z,10.00
2023-05-19T19:22:10.675Z,9.50
2023-05-19T19:24:37.647Z,8.70
2023-05-19T19:27:05.070Z,8.70
2023-05-19T19:29:32.159Z,8.90
2023-05-19T19:31:59.158Z,7.70
2023-05-19T19:34:26.308Z,9.30
2023-05-19T19:36:53.311Z,8.90
2023-05-19T19:39:20.285Z,8.40
2023-05-19T19:41:47.361Z,9.40
2023-05-19T19:44:14.623Z,8.70
2023-05-19T19:46:41.687Z,9.60
2023-05-19T19:49:08.830Z,9.90
2023-05-19T19:51:35.965Z,9.40
2023-05-19T19:54:03.066Z,9.30
2023-05-19T19:56:30.258Z,9.70
2023-05-19T19:58:59.072Z,9.00
2023-05-19T20:01:27.977Z,8.70
2023-05-19T20:03:56.043Z,9.80
2023-05-19T20:06:23.367Z,9.90
2023-05-19T20:08:50.624Z,9.80
2023-05-19T20:11:17.713Z,9.10
2023-05-19T20:13:44.770Z,9.80
2023-05-19T20:16:11.814Z,9.30
2023-05-19T20:18:39.685Z,10.50
2023-05-19T20:21:06.803Z,9.80
2023-05-19T20:23:34.070Z,9.70
2023-05-19T20:26:12.014Z,9.00
2023-05-19T20:28:40.534Z,9.70
2023-05-19T20:31:07.690Z,9.80
2023-05-19T20:33:34.851Z,10.50
2023-05-19T20:36:01.828Z,9.90
2023-05-19T20:38:28.788Z,10.10
2023-05-19T20:40:55.774Z,9.60
2023-05-19T20:43:22.976Z,9.60
2023-05-19T20:45:49.999Z,9.60
2023-05-19T20:48:17.164Z,9.40
2023-05-19T20:50:44.325Z,9.60
2023-05-19T20:53:11.443Z,10.40
2023-05-19T20:55:42.317Z,9.80
2023-05-19T20:58:09.264Z,10.20
2023-05-19T21:00:36.649Z,10.10
2023-05-19T21:03:03.938Z,10.20
2023-05-19T21:05:31.235Z,10.90
2023-05-19T21:07:58.313Z,10.20
2023-05-19T21:10:25.317Z,10.60
2023-05-19T21:12:52.342Z,10.80
2023-05-19T21:15:19.442Z,11.10
2023-05-19T21:17:46.872Z,9.90
2023-05-19T21:20:13.999Z,10.50
2023-05-19T21:22:41.188Z,10.80
2023-05-19T21:25:08.630Z,10.00
2023-05-19T21:27:36.513Z,9.80
2023-05-19T21:30:04.499Z,10.00
2023-05-19T21:32:31.460Z,9.90
2023-05-19T21:34:58.750Z,10.20
2023-05-19T21:37:25.735Z,10.40
2023-05-19T21:39:52.762Z,9.80
2023-05-19T21:42:19.900Z,9.80
2023-05-19T21:44:47.045Z,10.10
2023-05-19T21:47:14.198Z,10.70
2023-05-19T21:49:41.480Z,10.10
2023-05-19T21:52:08.569Z,9.40
2023-05-19T21:54:36.290Z,9.70
2023-05-19T21:57:03.602Z,10.70
2023-05-19T21:59:30.677Z,8.90
2023-05-19T22:01:58.612Z,10.40
2023-05-19T22:04:25.834Z,9.20
2023-05-19T22:06:52.943Z,10.20
2023-05-19T22:09:20.043Z,9.80
2023-05-19T22:11:47.146Z,10.80
2023-05-19T22:14:14.389Z,9.90
2023-05-19T22:16:41.847Z,9.90
2023-05-19T22:19:09.062Z,9.80
2023-05-19T22:21:36.561Z,9.50
2023-05-19T22:24:04.814Z,9.40
2023-05-19T22:26:31.737Z,9.70
2023-05-19T22:28:58.701Z,9.40
2023-05-19T22:31:25.858Z,9.90
2023-05-19T22:33:53.098Z,9.60
2023-05-19T22:36:20.506Z,9.30
2023-05-19T22:38:48.022Z,9.40
2023-05-19T22:41:15.013Z,9.20
2023-05-19T22:43:41.939Z,10.30
2023-05-19T22:46:09.057Z,9.40
2023-05-19T22:48:36.170Z,10.30
2023-05-19T22:51:03.242Z,11.20
2023-05-19T22:53:30.349Z,15.90
2023-05-19T22:55:57.360Z,18.20
2023-05-19T22:58:24.387Z,18.70
2023-05-19T23:00:51.417Z,17.40
2023-05-19T23:03:18.517Z,14.20
2023-05-19T23:05:45.638Z,14.00
2023-05-19T23:08:12.587Z,12.00
2023-05-19T23:10:39.736Z,10.80
2023-05-19T23:13:06.852Z,11.40
2023-05-19T23:15:34.398Z,10.10
2023-05-19T23:18:07.227Z,10.50
2023-05-19T23:20:35.071Z,10.70
2023-05-19T23:23:02.179Z,9.60
2023-05-19T23:25:29.241Z,9.70
2023-05-19T23:27:56.338Z,9.50
2023-05-19T23:30:23.311Z,10.80
2023-05-19T23:32:50.413Z,8.90
2023-05-19T23:35:17.524Z,10.00
2023-05-19T23:37:44.539Z,9.70
2023-05-19T23:40:12.133Z,10.10
2023-05-19T23:42:39.380Z,9.90
2023-05-19T23:45:07.047Z,10.00
2023-05-19T23:47:34.308Z,10.20
2023-05-19T23:50:01.542Z,10.20
2023-05-19T23:52:28.546Z,10.00
2023-05-19T23:54:55.563Z,9.60
2023-05-19T23:57:22.673Z,9.00
2023-05-19T23:59:49.700Z,9.90
